Flag for Greece

Past Weather in 35°29'31.1"N, 24°04'20.7"E, Greece — Yesterday and Last 2 Weeks

Currently: 75 °F. Sunny. (Weather station: Souda Airport, Greece). See more current weather

Past Weather in 35°29'31.1"N, 24°04'20.7"E — Graph

°F

35°29'31.1"N, 24°04'20.7"E Temperature Yesterday

Maximum temperature yesterday: 82 °F (at 12:20 pm)
Minimum temperature yesterday: 64 °F (at 2:50 am)
Average temperature yesterday: 73 °F

High & Low Weather Summary for the Past Weeks

 TemperatureHumidityPressure
High86 °F (May 22, 2:50 pm)100% (May 19, 5:50 am)30.07 "Hg (May 19, 5:50 am)
Low55 °F (May 12, 2:50 am)39% (May 23, 12:50 pm)29.62 "Hg (May 10, 10:50 am)
Average69 °F70%29.93 "Hg
* Reported May 10 10:20 am — May 25 10:20 am, 35°29'31.1"N, 24°04'20.7"E. Weather by CustomWeather, © 2024

Note: Actual official high and low records may vary slightly from our data, if they occured in-between our weather recording intervals... More about our weather records

35°29'31.1"N, 24°04'20.7"E Weather History for the Previous 24 Hours

Scroll right to see more
 ConditionsComfort  
Time TempWeatherWind HumidityBarometerVisibility
10:20 am
Sat, May 25
75 °FSunny.9 mph50%29.95 "Hg10 mi
9:50 am75 °FSunny.8 mph54%29.95 "Hg10 mi
9:20 am75 °FSunny.5 mph50%29.98 "Hg10 mi
8:50 am75 °FSunny.8 mph54%29.98 "Hg10 mi
8:20 am73 °FSunny.3 mph61%29.95 "Hg10 mi
7:50 am68 °FSunny.No wind64%29.95 "Hg10 mi
7:20 am64 °FSunny.No wind73%29.95 "Hg10 mi
6:50 am64 °FSunny.No wind73%29.95 "Hg10 mi
6:20 am66 °FSunny.3 mph68%29.95 "Hg10 mi
5:50 am66 °FClear.No wind68%29.95 "Hg10 mi
5:20 am66 °FClear.No wind83%29.95 "Hg10 mi
4:50 am66 °FClear.No wind60%29.95 "Hg10 mi
4:20 am66 °FClear.No wind83%29.95 "Hg10 mi
3:50 am66 °FClear.No wind83%29.95 "Hg10 mi
3:20 am66 °FClear.No wind83%29.95 "Hg10 mi
2:50 am66 °FClear.No wind83%29.95 "Hg10 mi
2:20 am66 °FClear.No wind88%29.98 "Hg10 mi
1:20 am66 °FClear.3 mph78%29.98 "Hg10 mi
12:50 am66 °FClear.No wind78%29.98 "Hg10 mi
12:20 am68 °FClear.No wind83%29.98 "Hg10 mi
11:20 pm
Fri, May 24
68 °FClear.No wind78%29.98 "Hg10 mi
10:50 pm68 °FClear.No wind78%29.98 "Hg10 mi
10:20 pm72 °FClear.No wind65%29.98 "Hg10 mi
9:20 pm72 °FClear.No wind65%29.98 "Hg10 mi
8:50 pm72 °FClear.3 mph65%29.98 "Hg10 mi
8:20 pm73 °FSunny.5 mph50%29.98 "Hg10 mi
7:50 pm75 °FSunny.3 mph54%29.98 "Hg10 mi
7:20 pm75 °FSunny.7 mph54%29.98 "Hg10 mi
6:50 pm77 °FSunny.7 mph54%29.98 "Hg10 mi
6:20 pm79 °FSunny.9 mph48%29.98 "Hg10 mi
5:50 pm79 °FSunny.9 mph48%29.98 "Hg10 mi
5:20 pm79 °FSunny.8 mph48%29.98 "Hg10 mi
4:20 pm81 °FSunny.10 mph45%29.98 "Hg10 mi
3:20 pm82 °FSunny.9 mph45%30.01 "Hg10 mi
2:50 pm82 °FSunny.7 mph42%30.01 "Hg10 mi
1:50 pm82 °FSunny.7 mph40%30.01 "Hg10 mi
1:20 pm82 °FSunny.10 mph45%30.01 "Hg10 mi
12:50 pm82 °FSunny.7 mph40%30.01 "Hg10 mi
12:20 pm82 °FSunny.7 mph40%30.01 "Hg10 mi
11:50 am79 °FSunny.9 mph48%30.01 "Hg10 mi
11:20 am79 °FSunny.6 mph48%30.01 "Hg10 mi
Weather by CustomWeather, © 2024

See weather overview